sensor_id;sensor_type;location;lat;lon;timestamp;pressure;altitude;pressure_sealevel;temperature;humidity
10310;BME280;5200;43.236;27.986;2023-12-28T00:01:32;101215.81;;;7.70;100.00
10310;BME280;5200;43.236;27.986;2023-12-28T00:04:02;101217.09;;;7.62;100.00
10310;BME280;5200;43.236;27.986;2023-12-28T00:06:37;101245.53;;;7.69;100.00
10310;BME280;5200;43.236;27.986;2023-12-28T00:09:04;101239.84;;;7.62;100.00
10310;BME280;5200;43.236;27.986;2023-12-28T00:11:34;101245.16;;;7.60;100.00
10310;BME280;5200;43.236;27.986;2023-12-28T00:14:01;101248.13;;;7.54;100.00
10310;BME280;5200;43.236;27.986;2023-12-28T00:16:34;101233.19;;;7.40;100.00
10310;BME280;5200;43.236;27.986;2023-12-28T00:19:05;101246.47;;;7.37;100.00
10310;BME280;5200;43.236;27.986;2023-12-28T00:21:33;101250.84;;;7.37;100.00
10310;BME280;5200;43.236;27.986;2023-12-28T00:24:05;101245.97;;;7.31;100.00
10310;BME280;5200;43.236;27.986;2023-12-28T00:26:35;101250.16;;;7.33;100.00
10310;BME280;5200;43.236;27.986;2023-12-28T00:29:02;101267.66;;;7.33;100.00
10310;BME280;5200;43.236;27.986;2023-12-28T00:31:31;101252.56;;;7.22;100.00
10310;BME280;5200;43.236;27.986;2023-12-28T00:33:58;101262.09;;;7.23;100.00
10310;BME280;5200;43.236;27.986;2023-12-28T00:36:25;101264.03;;;7.19;100.00
10310;BME280;5200;43.236;27.986;2023-12-28T00:38:54;101266.81;;;7.16;100.00
10310;BME280;5200;43.236;27.986;2023-12-28T00:41:23;101275.69;;;7.14;100.00
10310;BME280;5200;43.236;27.986;2023-12-28T00:44:00;101278.56;;;7.09;100.00
10310;BME280;5200;43.236;27.986;2023-12-28T00:46:30;101278.75;;;7.06;100.00
10310;BME280;5200;43.236;27.986;2023-12-28T00:48:57;101271.97;;;7.02;100.00
10310;BME280;5200;43.236;27.986;2023-12-28T00:51:24;101272.22;;;6.97;100.00
10310;BME280;5200;43.236;27.986;2023-12-28T00:53:54;101258.13;;;6.84;100.00
10310;BME280;5200;43.236;27.986;2023-12-28T00:56:21;101271.72;;;6.91;100.00
10310;BME280;5200;43.236;27.986;2023-12-28T00:58:56;101269.44;;;6.85;100.00
10310;BME280;5200;43.236;27.986;2023-12-28T01:01:26;101262.69;;;6.81;100.00
10310;BME280;5200;43.236;27.986;2023-12-28T01:03:58;101258.97;;;6.85;100.00
10310;BME280;5200;43.236;27.986;2023-12-28T01:06:34;101256.25;;;6.86;100.00
10310;BME280;5200;43.236;27.986;2023-12-28T01:09:02;101254.66;;;6.84;100.00
10310;BME280;5200;43.236;27.986;2023-12-28T01:11:32;101241.31;;;6.72;100.00
10310;BME280;5200;43.236;27.986;2023-12-28T01:13:59;101240.06;;;6.64;100.00
10310;BME280;5200;43.236;27.986;2023-12-28T01:16:28;101252.72;;;6.71;100.00
10310;BME280;5200;43.236;27.986;2023-12-28T01:18:55;101242.56;;;6.65;100.00
10310;BME280;5200;43.236;27.986;2023-12-28T01:21:25;101253.66;;;6.70;100.00
10310;BME280;5200;43.236;27.986;2023-12-28T01:23:56;101239.34;;;6.60;100.00
10310;BME280;5200;43.236;27.986;2023-12-28T01:26:27;101237.81;;;6.56;100.00
10310;BME280;5200;43.236;27.986;2023-12-28T01:28:59;101241.38;;;6.55;100.00
10310;BME280;5200;43.236;27.986;2023-12-28T01:31:30;101253.38;;;6.59;100.00
10310;BME280;5200;43.236;27.986;2023-12-28T01:33:56;101234.78;;;6.48;100.00
10310;BME280;5200;43.236;27.986;2023-12-28T01:36:27;101243.06;;;6.56;100.00
10310;BME280;5200;43.236;27.986;2023-12-28T01:39:02;101245.06;;;6.51;100.00
10310;BME280;5200;43.236;27.986;2023-12-28T01:41:35;101248.81;;;6.47;100.00
10310;BME280;5200;43.236;27.986;2023-12-28T01:44:05;101240.44;;;6.40;100.00
10310;BME280;5200;43.236;27.986;2023-12-28T01:46:33;101230.59;;;6.28;100.00
10310;BME280;5200;43.236;27.986;2023-12-28T01:49:03;101244.59;;;6.27;100.00
10310;BME280;5200;43.236;27.986;2023-12-28T01:51:33;101240.63;;;6.20;100.00
10310;BME280;5200;43.236;27.986;2023-12-28T01:54:00;101254.97;;;6.28;100.00
10310;BME280;5200;43.236;27.986;2023-12-28T01:56:28;101255.66;;;6.32;100.00
10310;BME280;5200;43.236;27.986;2023-12-28T01:58:59;101255.66;;;6.32;100.00
10310;BME280;5200;43.236;27.986;2023-12-28T02:01:26;101229.47;;;6.16;100.00
10310;BME280;5200;43.236;27.986;2023-12-28T02:03:55;101243.00;;;6.24;100.00
10310;BME280;5200;43.236;27.986;2023-12-28T02:06:38;101259.75;;;6.38;100.00
10310;BME280;5200;43.236;27.986;2023-12-28T02:09:06;101249.59;;;6.31;100.00
10310;BME280;5200;43.236;27.986;2023-12-28T02:11:39;101245.38;;;6.29;100.00
10310;BME280;5200;43.236;27.986;2023-12-28T02:14:09;101254.13;;;6.28;100.00
10310;BME280;5200;43.236;27.986;2023-12-28T02:16:43;101255.75;;;6.13;100.00
10310;BME280;5200;43.236;27.986;2023-12-28T02:19:19;101249.50;;;6.00;100.00
10310;BME280;5200;43.236;27.986;2023-12-28T02:21:54;101246.38;;;5.91;100.00
10310;BME280;5200;43.236;27.986;2023-12-28T02:24:25;101264.16;;;6.02;100.00
10310;BME280;5200;43.236;27.986;2023-12-28T02:26:56;101265.84;;;6.03;100.00
10310;BME280;5200;43.236;27.986;2023-12-28T02:29:25;101265.66;;;6.06;100.00
10310;BME280;5200;43.236;27.986;2023-12-28T02:32:00;101270.22;;;6.03;100.00
10310;BME280;5200;43.236;27.986;2023-12-28T02:34:37;101265.28;;;5.97;100.00
10310;BME280;5200;43.236;27.986;2023-12-28T02:37:10;101258.81;;;5.86;100.00
10310;BME280;5200;43.236;27.986;2023-12-28T02:39:40;101282.50;;;6.01;100.00
10310;BME280;5200;43.236;27.986;2023-12-28T02:42:09;101279.59;;;6.07;100.00
10310;BME280;5200;43.236;27.986;2023-12-28T02:44:39;101279.22;;;6.14;100.00
10310;BME280;5200;43.236;27.986;2023-12-28T02:47:06;101275.59;;;6.17;100.00
10310;BME280;5200;43.236;27.986;2023-12-28T02:49:34;101279.09;;;6.16;100.00
10310;BME280;5200;43.236;27.986;2023-12-28T02:52:00;101275.00;;;6.12;100.00
10310;BME280;5200;43.236;27.986;2023-12-28T02:54:30;101277.59;;;6.12;100.00
10310;BME280;5200;43.236;27.986;2023-12-28T02:56:57;101282.13;;;6.08;100.00
10310;BME280;5200;43.236;27.986;2023-12-28T02:59:38;101275.88;;;5.93;100.00
10310;BME280;5200;43.236;27.986;2023-12-28T03:02:09;101280.97;;;5.97;100.00
10310;BME280;5200;43.236;27.986;2023-12-28T03:04:36;101260.81;;;5.81;100.00
10310;BME280;5200;43.236;27.986;2023-12-28T03:07:07;101283.88;;;5.90;100.00
10310;BME280;5200;43.236;27.986;2023-12-28T03:09:34;101291.00;;;5.87;100.00
10310;BME280;5200;43.236;27.986;2023-12-28T03:12:07;101276.78;;;5.75;100.00
10310;BME280;5200;43.236;27.986;2023-12-28T03:14:35;101282.16;;;5.72;100.00
10310;BME280;5200;43.236;27.986;2023-12-28T03:17:02;101289.69;;;5.78;100.00
10310;BME280;5200;43.236;27.986;2023-12-28T03:19:35;101283.63;;;5.78;100.00
10310;BME280;5200;43.236;27.986;2023-12-28T03:22:03;101274.25;;;5.73;100.00
10310;BME280;5200;43.236;27.986;2023-12-28T03:24:33;101286.47;;;5.73;100.00
10310;BME280;5200;43.236;27.986;2023-12-28T03:27:00;101281.41;;;5.70;100.00
10310;BME280;5200;43.236;27.986;2023-12-28T03:29:27;101264.50;;;5.60;100.00
10310;BME280;5200;43.236;27.986;2023-12-28T03:32:00;101273.16;;;5.60;100.00
10310;BME280;5200;43.236;27.986;2023-12-28T03:34:33;101274.84;;;5.61;100.00
10310;BME280;5200;43.236;27.986;2023-12-28T03:37:03;101277.56;;;5.60;100.00
10310;BME280;5200;43.236;27.986;2023-12-28T03:39:35;101276.00;;;5.56;100.00
10310;BME280;5200;43.236;27.986;2023-12-28T03:42:02;101283.97;;;5.53;100.00
10310;BME280;5200;43.236;27.986;2023-12-28T03:44:30;101290.28;;;5.48;100.00
10310;BME280;5200;43.236;27.986;2023-12-28T03:47:00;101287.78;;;5.45;100.00
10310;BME280;5200;43.236;27.986;2023-12-28T03:49:27;101271.81;;;5.34;100.00
10310;BME280;5200;43.236;27.986;2023-12-28T03:51:58;101279.34;;;5.40;100.00
10310;BME280;5200;43.236;27.986;2023-12-28T03:54:33;101279.56;;;5.36;100.00
10310;BME280;5200;43.236;27.986;2023-12-28T03:57:02;101268.03;;;5.22;100.00
10310;BME280;5200;43.236;27.986;2023-12-28T03:59:29;101261.94;;;5.22;100.00
10310;BME280;5200;43.236;27.986;2023-12-28T04:02:00;101265.63;;;5.18;100.00
10310;BME280;5200;43.236;27.986;2023-12-28T04:04:30;101266.31;;;5.21;100.00
10310;BME280;5200;43.236;27.986;2023-12-28T04:07:02;101254.31;;;5.17;100.00
10310;BME280;5200;43.236;27.986;2023-12-28T04:09:35;101262.25;;;5.16;100.00
10310;BME280;5200;43.236;27.986;2023-12-28T04:12:05;101253.59;;;5.15;100.00
10310;BME280;5200;43.236;27.986;2023-12-28T04:14:37;101262.09;;;5.19;100.00
10310;BME280;5200;43.236;27.986;2023-12-28T04:17:05;101267.25;;;5.20;100.00
10310;BME280;5200;43.236;27.986;2023-12-28T04:19:35;101253.78;;;5.11;100.00
10310;BME280;5200;43.236;27.986;2023-12-28T04:22:09;101261.31;;;5.17;100.00
10310;BME280;5200;43.236;27.986;2023-12-28T04:24:42;101251.09;;;5.12;100.00
10310;BME280;5200;43.236;27.986;2023-12-28T04:27:14;101258.13;;;5.10;100.00
10310;BME280;5200;43.236;27.986;2023-12-28T04:29:46;101247.28;;;5.00;100.00
10310;BME280;5200;43.236;27.986;2023-12-28T04:32:15;101254.78;;;5.08;100.00
10310;BME280;5200;43.236;27.986;2023-12-28T04:34:46;101256.63;;;5.06;100.00
10310;BME280;5200;43.236;27.986;2023-12-28T04:37:17;101245.84;;;4.95;100.00
10310;BME280;5200;43.236;27.986;2023-12-28T04:39:44;101255.06;;;5.02;100.00
10310;BME280;5200;43.236;27.986;2023-12-28T04:42:12;101245.88;;;4.93;100.00
10310;BME280;5200;43.236;27.986;2023-12-28T04:44:39;101262.81;;;5.03;100.00
10310;BME280;5200;43.236;27.986;2023-12-28T04:47:13;101243.06;;;4.98;100.00
10310;BME280;5200;43.236;27.986;2023-12-28T04:49:50;101260.06;;;5.06;100.00
10310;BME280;5200;43.236;27.986;2023-12-28T04:52:20;101247.28;;;5.00;100.00
10310;BME280;5200;43.236;27.986;2023-12-28T04:54:53;101268.56;;;5.10;100.00
10310;BME280;5200;43.236;27.986;2023-12-28T04:57:23;101261.63;;;5.11;100.00
10310;BME280;5200;43.236;27.986;2023-12-28T04:59:52;101259.47;;;5.19;100.00
10310;BME280;5200;43.236;27.986;2023-12-28T05:02:20;101251.94;;;5.13;100.00
10310;BME280;5200;43.236;27.986;2023-12-28T05:04:52;101261.94;;;5.22;100.00
10310;BME280;5200;43.236;27.986;2023-12-28T05:07:18;101243.22;;;5.14;100.00
10310;BME280;5200;43.236;27.986;2023-12-28T05:09:48;101254.09;;;5.22;100.00
10310;BME280;5200;43.236;27.986;2023-12-28T05:12:15;101264.53;;;5.22;100.00
10310;BME280;5200;43.236;27.986;2023-12-28T05:14:48;101257.31;;;5.09;100.00
10310;BME280;5200;43.236;27.986;2023-12-28T05:17:17;101284.78;;;5.36;100.00
10310;BME280;5200;43.236;27.986;2023-12-28T05:19:44;101289.97;;;5.55;100.00
10310;BME280;5200;43.236;27.986;2023-12-28T05:22:16;101280.47;;;5.71;100.00
10310;BME280;5200;43.236;27.986;2023-12-28T05:24:48;101283.56;;;5.79;100.00
10310;BME280;5200;43.236;27.986;2023-12-28T05:27:18;101270.72;;;5.75;100.00
10310;BME280;5200;43.236;27.986;2023-12-28T05:29:46;101281.50;;;5.86;100.00
10310;BME280;5200;43.236;27.986;2023-12-28T05:32:13;101270.50;;;5.79;100.00
10310;BME280;5200;43.236;27.986;2023-12-28T05:34:43;101293.56;;;5.88;100.00
10310;BME280;5200;43.236;27.986;2023-12-28T05:37:16;101290.56;;;5.79;100.00
10310;BME280;5200;43.236;27.986;2023-12-28T05:39:43;101281.34;;;5.53;100.00
10310;BME280;5200;43.236;27.986;2023-12-28T05:42:14;101281.81;;;5.43;100.00
10310;BME280;5200;43.236;27.986;2023-12-28T05:44:41;101275.03;;;5.39;100.00
10310;BME280;5200;43.236;27.986;2023-12-28T05:47:14;101261.66;;;5.28;100.00
10310;BME280;5200;43.236;27.986;2023-12-28T05:49:47;101282.16;;;5.36;100.00
10310;BME280;5200;43.236;27.986;2023-12-28T05:52:15;101289.00;;;5.38;100.00
10310;BME280;5200;43.236;27.986;2023-12-28T05:54:46;101269.81;;;5.39;100.00
10310;BME280;5200;43.236;27.986;2023-12-28T05:57:15;101272.00;;;5.48;100.00
10310;BME280;5200;43.236;27.986;2023-12-28T05:59:45;101274.16;;;5.58;100.00
10310;BME280;5200;43.236;27.986;2023-12-28T06:02:12;101278.63;;;5.56;100.00
10310;BME280;5200;43.236;27.986;2023-12-28T06:04:42;101283.94;;;5.71;100.00
10310;BME280;5200;43.236;27.986;2023-12-28T06:07:09;101288.16;;;5.91;100.00
10310;BME280;5200;43.236;27.986;2023-12-28T06:09:40;101285.91;;;6.03;100.00
10310;BME280;5200;43.236;27.986;2023-12-28T06:12:12;101287.72;;;6.18;100.00
10310;BME280;5200;43.236;27.986;2023-12-28T06:14:39;101289.56;;;6.33;100.00
10310;BME280;5200;43.236;27.986;2023-12-28T06:17:11;101294.16;;;6.46;100.00
10310;BME280;5200;43.236;27.986;2023-12-28T06:19:42;101291.81;;;6.57;100.00
10310;BME280;5200;43.236;27.986;2023-12-28T06:22:11;101287.31;;;6.76;100.00
10310;BME280;5200;43.236;27.986;2023-12-28T06:24:42;101290.97;;;6.90;100.00
10310;BME280;5200;43.236;27.986;2023-12-28T06:27:11;101296.81;;;7.11;100.00
10310;BME280;5200;43.236;27.986;2023-12-28T06:29:55;101283.88;;;7.24;100.00
10310;BME280;5200;43.236;27.986;2023-12-28T06:32:24;101287.16;;;7.43;100.00
10310;BME280;5200;43.236;27.986;2023-12-28T06:34:53;101284.09;;;7.67;100.00
10310;BME280;5200;43.236;27.986;2023-12-28T06:37:23;101294.50;;;7.98;100.00
10310;BME280;5200;43.236;27.986;2023-12-28T06:39:54;101279.56;;;8.15;100.00
10310;BME280;5200;43.236;27.986;2023-12-28T06:44:49;101281.88;;;8.64;100.00
10310;BME280;5200;43.236;27.986;2023-12-28T06:47:26;101271.00;;;8.84;100.00
10310;BME280;5200;43.236;27.986;2023-12-28T06:49:59;101287.59;;;9.26;100.00
10310;BME280;5200;43.236;27.986;2023-12-28T06:52:26;101274.31;;;9.42;100.00
10310;BME280;5200;43.236;27.986;2023-12-28T06:54:54;101286.44;;;9.85;100.00
10310;BME280;5200;43.236;27.986;2023-12-28T06:57:21;101269.13;;;10.08;100.00
10310;BME280;5200;43.236;27.986;2023-12-28T06:59:50;101289.16;;;10.36;99.02
10310;BME280;5200;43.236;27.986;2023-12-28T07:02:25;101286.56;;;10.49;95.38
10310;BME280;5200;43.236;27.986;2023-12-28T07:04:55;101253.06;;;10.51;94.55
10310;BME280;5200;43.236;27.986;2023-12-28T07:07:27;101278.69;;;10.86;93.43
10310;BME280;5200;43.236;27.986;2023-12-28T07:12:46;101260.31;;;11.10;89.63
10310;BME280;5200;43.236;27.986;2023-12-28T07:15:17;101256.34;;;11.28;85.94
10310;BME280;5200;43.236;27.986;2023-12-28T07:17:47;101245.13;;;11.37;83.92
10310;BME280;5200;43.236;27.986;2023-12-28T07:20:17;101253.97;;;11.60;82.98
10310;BME280;5200;43.236;27.986;2023-12-28T07:22:46;101259.94;;;11.87;81.14
10310;BME280;5200;43.236;27.986;2023-12-28T07:25:25;101254.25;;;11.93;80.37
10310;BME280;5200;43.236;27.986;2023-12-28T07:27:57;101273.72;;;12.14;79.09
10310;BME280;5200;43.236;27.986;2023-12-28T07:30:25;101282.88;;;12.33;77.65
10310;BME280;5200;43.236;27.986;2023-12-28T07:35:48;101278.78;;;12.40;75.69
10310;BME280;5200;43.236;27.986;2023-12-28T07:38:16;101292.22;;;12.48;74.48
10310;BME280;5200;43.236;27.986;2023-12-28T07:40:44;101294.75;;;12.50;72.95
10310;BME280;5200;43.236;27.986;2023-12-28T07:43:15;101282.38;;;12.39;72.71
10310;BME280;5200;43.236;27.986;2023-12-28T07:45:50;101283.84;;;12.43;72.81
10310;BME280;5200;43.236;27.986;2023-12-28T07:48:36;101280.09;;;12.34;72.00
10310;BME280;5200;43.236;27.986;2023-12-28T07:51:14;101293.88;;;12.26;73.63
10310;BME280;5200;43.236;27.986;2023-12-28T07:53:54;101287.66;;;12.27;74.46
10310;BME280;5200;43.236;27.986;2023-12-28T07:56:29;101292.44;;;12.22;74.05
10310;BME280;5200;43.236;27.986;2023-12-28T07:59:01;101281.81;;;11.89;76.22
10310;BME280;5200;43.236;27.986;2023-12-28T08:01:39;101278.81;;;11.69;78.63
10310;BME280;5200;43.236;27.986;2023-12-28T08:04:06;101274.78;;;11.76;79.76
10310;BME280;5200;43.236;27.986;2023-12-28T08:06:37;101290.69;;;11.99;79.40
10310;BME280;5200;43.236;27.986;2023-12-28T08:09:04;101290.72;;;12.10;79.16
10310;BME280;5200;43.236;27.986;2023-12-28T08:12:00;101286.31;;;12.22;78.05
10310;BME280;5200;43.236;27.986;2023-12-28T08:14:29;101295.94;;;12.45;76.70
10310;BME280;5200;43.236;27.986;2023-12-28T08:17:02;101293.81;;;12.62;75.79
10310;BME280;5200;43.236;27.986;2023-12-28T08:19:33;101290.09;;;12.64;74.23
10310;BME280;5200;43.236;27.986;2023-12-28T08:22:03;101292.97;;;12.61;73.00
10310;BME280;5200;43.236;27.986;2023-12-28T08:24:34;101261.88;;;12.42;73.26
10310;BME280;5200;43.236;27.986;2023-12-28T08:27:18;101263.44;;;12.45;73.55
10310;BME280;5200;43.236;27.986;2023-12-28T08:29:46;101296.34;;;12.75;72.58
10310;BME280;5200;43.236;27.986;2023-12-28T08:32:17;101243.06;;;12.58;71.79
10310;BME280;5200;43.236;27.986;2023-12-28T08:34:46;101228.88;;;12.48;70.10
10310;BME280;5200;43.236;27.986;2023-12-28T08:37:14;101236.31;;;12.43;68.00
10310;BME280;5200;43.236;27.986;2023-12-28T08:39:43;101232.25;;;12.27;69.04
10310;BME280;5200;43.236;27.986;2023-12-28T08:42:13;101249.16;;;12.47;70.16
10310;BME280;5200;43.236;27.986;2023-12-28T08:44:55;101195.78;;;12.33;71.08
10310;BME280;5200;43.236;27.986;2023-12-28T08:47:22;101198.41;;;12.44;70.67
10310;BME280;5200;43.236;27.986;2023-12-28T08:49:49;101253.22;;;12.74;71.04
10310;BME280;5200;43.236;27.986;2023-12-28T08:52:18;101270.88;;;12.96;70.79
10310;BME280;5200;43.236;27.986;2023-12-28T08:54:46;101274.72;;;12.92;70.40
10310;BME280;5200;43.236;27.986;2023-12-28T08:57:14;101232.34;;;12.60;70.93
10310;BME280;5200;43.236;27.986;2023-12-28T08:59:41;101254.56;;;12.91;71.43
10310;BME280;5200;43.236;27.986;2023-12-28T09:02:08;101251.91;;;12.91;71.22
10310;BME280;5200;43.236;27.986;2023-12-28T09:04:34;101243.00;;;12.92;71.04
10310;BME280;5200;43.236;27.986;2023-12-28T09:07:03;101239.53;;;12.92;70.78
10310;BME280;5200;43.236;27.986;2023-12-28T09:09:30;101207.03;;;12.68;71.00
10310;BME280;5200;43.236;27.986;2023-12-28T09:11:57;101231.72;;;12.90;71.69
10310;BME280;5200;43.236;27.986;2023-12-28T09:14:25;101214.22;;;12.89;71.38
10310;BME280;5200;43.236;27.986;2023-12-28T09:16:52;101209.66;;;12.91;71.14
10310;BME280;5200;43.236;27.986;2023-12-28T09:19:19;101214.53;;;12.96;70.82
10310;BME280;5200;43.236;27.986;2023-12-28T09:21:46;101172.59;;;12.70;70.80
10310;BME280;5200;43.236;27.986;2023-12-28T09:24:13;101212.16;;;12.81;71.18
10310;BME280;5200;43.236;27.986;2023-12-28T09:26:41;101170.59;;;12.51;72.06
10310;BME280;5200;43.236;27.986;2023-12-28T09:29:08;101200.31;;;12.76;73.28
10310;BME280;5200;43.236;27.986;2023-12-28T09:31:37;101172.81;;;12.78;72.99
10310;BME280;5200;43.236;27.986;2023-12-28T09:34:04;101154.44;;;12.77;71.97
10310;BME280;5200;43.236;27.986;2023-12-28T09:36:33;101159.97;;;12.74;71.58
10310;BME280;5200;43.236;27.986;2023-12-28T09:39:00;101152.06;;;12.62;72.33
10310;BME280;5200;43.236;27.986;2023-12-28T09:41:30;101179.38;;;12.84;70.95
10310;BME280;5200;43.236;27.986;2023-12-28T09:44:05;101176.28;;;12.67;72.21
10310;BME280;5200;43.236;27.986;2023-12-28T09:46:33;101173.44;;;12.71;73.86
10310;BME280;5200;43.236;27.986;2023-12-28T09:49:02;101162.97;;;12.69;74.04
10310;BME280;5200;43.236;27.986;2023-12-28T09:51:30;101140.31;;;12.55;76.23
10310;BME280;5200;43.236;27.986;2023-12-28T09:53:57;101127.25;;;12.54;77.20
10310;BME280;5200;43.236;27.986;2023-12-28T09:56:24;101158.75;;;12.78;76.93
10310;BME280;5200;43.236;27.986;2023-12-28T09:58:51;101154.31;;;12.78;75.80
10310;BME280;5200;43.236;27.986;2023-12-28T10:01:19;101142.94;;;12.66;76.03
10310;BME280;5200;43.236;27.986;2023-12-28T10:03:46;101131.28;;;12.69;76.45
10310;BME280;5200;43.236;27.986;2023-12-28T10:06:15;101137.00;;;12.85;75.80
10310;BME280;5200;43.236;27.986;2023-12-28T10:08:47;101111.00;;;12.69;74.54
10310;BME280;5200;43.236;27.986;2023-12-28T10:11:18;101112.94;;;12.67;74.74
10310;BME280;5200;43.236;27.986;2023-12-28T10:13:46;101105.06;;;12.56;74.77
10310;BME280;5200;43.236;27.986;2023-12-28T10:16:13;101131.19;;;12.59;77.04
10310;BME280;5200;43.236;27.986;2023-12-28T10:18:40;101119.19;;;12.55;78.18
10310;BME280;5200;43.236;27.986;2023-12-28T10:21:08;101119.78;;;12.70;77.63
10310;BME280;5200;43.236;27.986;2023-12-28T10:23:37;101105.88;;;12.57;77.44
10310;BME280;5200;43.236;27.986;2023-12-28T10:26:04;101114.75;;;12.56;77.04
10310;BME280;5200;43.236;27.986;2023-12-28T10:28:32;101113.47;;;12.39;76.75
10310;BME280;5200;43.236;27.986;2023-12-28T10:30:59;101089.63;;;12.18;76.57
10310;BME280;5200;43.236;27.986;2023-12-28T10:33:26;101085.91;;;12.20;77.17
10310;BME280;5200;43.236;27.986;2023-12-28T10:35:58;101117.19;;;12.25;78.97
10310;BME280;5200;43.236;27.986;2023-12-28T10:38:25;101122.50;;;12.02;80.56
10310;BME280;5200;43.236;27.986;2023-12-28T10:40:56;101103.16;;;11.79;85.69
10310;BME280;5200;43.236;27.986;2023-12-28T10:43:23;101089.72;;;11.60;89.20
10310;BME280;5200;43.236;27.986;2023-12-28T10:45:52;101104.59;;;11.72;92.03
10310;BME280;5200;43.236;27.986;2023-12-28T10:48:26;101094.28;;;11.69;92.74
10310;BME280;5200;43.236;27.986;2023-12-28T10:50:57;101089.59;;;11.73;93.34
10310;BME280;5200;43.236;27.986;2023-12-28T10:53:33;101087.81;;;11.62;92.72
10310;BME280;5200;43.236;27.986;2023-12-28T10:56:20;101068.25;;;11.42;95.29
10310;BME280;5200;43.236;27.986;2023-12-28T10:58:49;101054.22;;;11.41;96.16
10310;BME280;5200;43.236;27.986;2023-12-28T11:01:21;101096.19;;;11.67;95.88
10310;BME280;5200;43.236;27.986;2023-12-28T11:03:52;101074.38;;;11.54;95.84
10310;BME280;5200;43.236;27.986;2023-12-28T11:06:25;101075.34;;;11.53;96.39
10310;BME280;5200;43.236;27.986;2023-12-28T11:08:54;101089.22;;;11.43;97.46
10310;BME280;5200;43.236;27.986;2023-12-28T11:11:24;101085.22;;;11.38;97.21
10310;BME280;5200;43.236;27.986;2023-12-28T11:13:52;101040.75;;;11.11;98.30
10310;BME280;5200;43.236;27.986;2023-12-28T11:16:21;101080.81;;;11.38;98.71
10310;BME280;5200;43.236;27.986;2023-12-28T11:18:49;101043.19;;;11.25;98.22
10310;BME280;5200;43.236;27.986;2023-12-28T11:21:17;101049.03;;;11.29;98.29
10310;BME280;5200;43.236;27.986;2023-12-28T11:23:45;101058.66;;;11.41;97.74
10310;BME280;5200;43.236;27.986;2023-12-28T11:26:16;101070.00;;;11.30;98.44
10310;BME280;5200;43.236;27.986;2023-12-28T11:28:45;101047.09;;;11.08;98.89
10310;BME280;5200;43.236;27.986;2023-12-28T11:31:13;101038.78;;;10.90;99.91
10310;BME280;5200;43.236;27.986;2023-12-28T11:59:23;100998.03;;;11.30;100.00
10310;BME280;5200;43.236;27.986;2023-12-28T12:01:50;101025.72;;;11.35;100.00
10310;BME280;5200;43.236;27.986;2023-12-28T12:04:18;101021.50;;;11.33;100.00
10310;BME280;5200;43.236;27.986;2023-12-28T12:06:45;100999.22;;;11.26;100.00
10310;BME280;5200;43.236;27.986;2023-12-28T12:09:12;101019.34;;;11.38;100.00
10310;BME280;5200;43.236;27.986;2023-12-28T12:11:39;101018.28;;;11.29;100.00
10310;BME280;5200;43.236;27.986;2023-12-28T12:14:08;100982.69;;;11.01;100.00
10310;BME280;5200;43.236;27.986;2023-12-28T12:16:37;100975.00;;;10.87;100.00
10310;BME280;5200;43.236;27.986;2023-12-28T12:19:04;100994.97;;;10.89;100.00
10310;BME280;5200;43.236;27.986;2023-12-28T12:21:32;100986.47;;;10.86;100.00
10310;BME280;5200;43.236;27.986;2023-12-28T12:23:59;100978.06;;;10.81;100.00
10310;BME280;5200;43.236;27.986;2023-12-28T12:26:26;100995.19;;;10.86;100.00
10310;BME280;5200;43.236;27.986;2023-12-28T12:28:53;100949.66;;;10.62;100.00
10310;BME280;5200;43.236;27.986;2023-12-28T12:31:21;100992.31;;;10.78;100.00
10310;BME280;5200;43.236;27.986;2023-12-28T12:33:49;100984.38;;;10.67;100.00
10310;BME280;5200;43.236;27.986;2023-12-28T12:36:17;100987.00;;;10.67;100.00
10310;BME280;5200;43.236;27.986;2023-12-28T12:38:44;100987.34;;;10.62;100.00
10310;BME280;5200;43.236;27.986;2023-12-28T12:41:11;100983.59;;;10.53;100.00
10310;BME280;5200;43.236;27.986;2023-12-28T12:43:39;100967.25;;;10.37;100.00
10310;BME280;5200;43.236;27.986;2023-12-28T12:46:06;100964.38;;;10.29;100.00
10310;BME280;5200;43.236;27.986;2023-12-28T12:48:33;100968.84;;;10.27;100.00
10310;BME280;5200;43.236;27.986;2023-12-28T12:51:03;100971.00;;;10.22;100.00
10310;BME280;5200;43.236;27.986;2023-12-28T12:53:33;100948.44;;;10.06;100.00
10310;BME280;5200;43.236;27.986;2023-12-28T12:56:00;100949.13;;;9.97;100.00
10310;BME280;5200;43.236;27.986;2023-12-28T12:58:27;100961.56;;;10.06;100.00
10310;BME280;5200;43.236;27.986;2023-12-28T13:00:56;100958.84;;;10.08;100.00
10310;BME280;5200;43.236;27.986;2023-12-28T13:03:27;100933.84;;;10.02;100.00
10310;BME280;5200;43.236;27.986;2023-12-28T13:05:55;100930.16;;;10.05;100.00
10310;BME280;5200;43.236;27.986;2023-12-28T13:08:23;100946.81;;;10.16;100.00
10310;BME280;5200;43.236;27.986;2023-12-28T13:10:50;100913.53;;;10.04;100.00
10310;BME280;5200;43.236;27.986;2023-12-28T13:13:17;100901.78;;;9.97;100.00
10310;BME280;5200;43.236;27.986;2023-12-28T13:15:44;100921.28;;;10.06;100.00
10310;BME280;5200;43.236;27.986;2023-12-28T13:18:11;100945.41;;;10.24;100.00
10310;BME280;5200;43.236;27.986;2023-12-28T13:20:38;100939.09;;;10.26;100.00
10310;BME280;5200;43.236;27.986;2023-12-28T13:23:05;100926.28;;;10.22;100.00
10310;BME280;5200;43.236;27.986;2023-12-28T13:25:33;100937.81;;;10.32;100.00
10310;BME280;5200;43.236;27.986;2023-12-28T13:28:00;100926.03;;;10.25;100.00
10310;BME280;5200;43.236;27.986;2023-12-28T13:30:27;100934.03;;;10.36;100.00
10310;BME280;5200;43.236;27.986;2023-12-28T13:32:54;100932.13;;;10.38;100.00
10310;BME280;5200;43.236;27.986;2023-12-28T13:35:22;100923.75;;;10.33;100.00